sensor_id;sensor_type;location;lat;lon;timestamp;P1;durP1;ratioP1;P2;durP2;ratioP2
60999;SDS011;46879;45.658;11.814;2023-01-29T00:01:00;10.60;;;6.82;;
60999;SDS011;46879;45.658;11.814;2023-01-29T00:06:06;8.73;;;5.88;;
60999;SDS011;46879;45.658;11.814;2023-01-29T00:11:08;10.73;;;7.05;;
60999;SDS011;46879;45.658;11.814;2023-01-29T00:16:09;10.45;;;6.75;;
60999;SDS011;46879;45.658;11.814;2023-01-29T00:21:10;8.65;;;6.78;;
60999;SDS011;46879;45.658;11.814;2023-01-29T00:26:13;13.68;;;7.05;;
60999;SDS011;46879;45.658;11.814;2023-01-29T00:31:15;8.60;;;6.35;;
60999;SDS011;46879;45.658;11.814;2023-01-29T00:36:19;9.40;;;6.45;;
60999;SDS011;46879;45.658;11.814;2023-01-29T00:41:21;8.50;;;6.03;;
60999;SDS011;46879;45.658;11.814;2023-01-29T00:46:40;9.52;;;6.32;;
60999;SDS011;46879;45.658;11.814;2023-01-29T00:51:41;10.63;;;7.30;;
60999;SDS011;46879;45.658;11.814;2023-01-29T00:56:41;9.13;;;6.30;;
60999;SDS011;46879;45.658;11.814;2023-01-29T01:01:42;9.48;;;6.38;;
60999;SDS011;46879;45.658;11.814;2023-01-29T01:07:01;9.02;;;6.65;;
60999;SDS011;46879;45.658;11.814;2023-01-29T01:12:02;10.45;;;6.65;;
60999;SDS011;46879;45.658;11.814;2023-01-29T01:17:02;11.25;;;7.03;;
60999;SDS011;46879;45.658;11.814;2023-01-29T01:22:03;9.38;;;7.15;;
60999;SDS011;46879;45.658;11.814;2023-01-29T01:27:04;10.25;;;6.82;;
60999;SDS011;46879;45.658;11.814;2023-01-29T01:32:05;9.15;;;6.55;;
60999;SDS011;46879;45.658;11.814;2023-01-29T01:37:05;12.65;;;6.88;;
60999;SDS011;46879;45.658;11.814;2023-01-29T01:42:15;9.45;;;6.60;;
60999;SDS011;46879;45.658;11.814;2023-01-29T01:47:17;9.25;;;5.93;;
60999;SDS011;46879;45.658;11.814;2023-01-29T01:52:22;8.38;;;6.28;;
60999;SDS011;46879;45.658;11.814;2023-01-29T01:57:23;9.48;;;6.53;;
60999;SDS011;46879;45.658;11.814;2023-01-29T02:02:26;9.38;;;6.35;;
60999;SDS011;46879;45.658;11.814;2023-01-29T02:07:46;8.40;;;6.18;;
60999;SDS011;46879;45.658;11.814;2023-01-29T02:13:08;9.60;;;6.35;;
60999;SDS011;46879;45.658;11.814;2023-01-29T02:18:08;10.98;;;6.65;;
60999;SDS011;46879;45.658;11.814;2023-01-29T02:29:17;9.77;;;6.13;;
60999;SDS011;46879;45.658;11.814;2023-01-29T02:34:35;9.77;;;6.43;;
60999;SDS011;46879;45.658;11.814;2023-01-29T02:40:07;7.60;;;5.97;;
60999;SDS011;46879;45.658;11.814;2023-01-29T02:56:02;8.23;;;5.68;;
60999;SDS011;46879;45.658;11.814;2023-01-29T03:01:20;8.63;;;6.15;;
60999;SDS011;46879;45.658;11.814;2023-01-29T03:11:53;10.10;;;6.10;;
60999;SDS011;46879;45.658;11.814;2023-01-29T03:17:02;7.22;;;6.10;;
60999;SDS011;46879;45.658;11.814;2023-01-29T03:22:03;7.25;;;5.55;;
60999;SDS011;46879;45.658;11.814;2023-01-29T03:27:08;8.00;;;5.85;;
60999;SDS011;46879;45.658;11.814;2023-01-29T03:32:29;8.75;;;5.88;;
60999;SDS011;46879;45.658;11.814;2023-01-29T03:42:54;7.80;;;5.78;;
60999;SDS011;46879;45.658;11.814;2023-01-29T03:48:20;8.05;;;5.97;;
60999;SDS011;46879;45.658;11.814;2023-01-29T03:58:47;8.07;;;5.72;;
60999;SDS011;46879;45.658;11.814;2023-01-29T04:04:16;6.68;;;5.40;;
60999;SDS011;46879;45.658;11.814;2023-01-29T04:09:30;7.40;;;5.82;;
60999;SDS011;46879;45.658;11.814;2023-01-29T04:14:38;6.55;;;5.00;;
60999;SDS011;46879;45.658;11.814;2023-01-29T04:19:38;7.78;;;5.78;;
60999;SDS011;46879;45.658;11.814;2023-01-29T04:24:40;6.45;;;5.32;;
60999;SDS011;46879;45.658;11.814;2023-01-29T04:46:07;9.32;;;5.60;;
60999;SDS011;46879;45.658;11.814;2023-01-29T04:51:14;6.68;;;5.07;;
60999;SDS011;46879;45.658;11.814;2023-01-29T04:56:31;7.85;;;5.28;;
60999;SDS011;46879;45.658;11.814;2023-01-29T05:01:50;9.27;;;5.00;;
60999;SDS011;46879;45.658;11.814;2023-01-29T05:06:52;7.60;;;5.30;;
60999;SDS011;46879;45.658;11.814;2023-01-29T05:11:54;8.43;;;5.78;;
60999;SDS011;46879;45.658;11.814;2023-01-29T05:16:55;7.53;;;5.40;;
60999;SDS011;46879;45.658;11.814;2023-01-29T05:21:59;6.00;;;4.90;;
60999;SDS011;46879;45.658;11.814;2023-01-29T05:27:03;6.45;;;4.80;;
60999;SDS011;46879;45.658;11.814;2023-01-29T05:32:22;5.07;;;4.38;;
60999;SDS011;46879;45.658;11.814;2023-01-29T05:37:23;6.60;;;4.95;;
60999;SDS011;46879;45.658;11.814;2023-01-29T05:42:24;7.20;;;5.30;;
60999;SDS011;46879;45.658;11.814;2023-01-29T05:47:24;7.15;;;5.88;;
60999;SDS011;46879;45.658;11.814;2023-01-29T05:52:25;5.68;;;5.07;;
60999;SDS011;46879;45.658;11.814;2023-01-29T05:57:25;6.32;;;5.22;;
60999;SDS011;46879;45.658;11.814;2023-01-29T06:02:28;6.30;;;5.30;;
60999;SDS011;46879;45.658;11.814;2023-01-29T06:07:30;6.53;;;5.40;;
60999;SDS011;46879;45.658;11.814;2023-01-29T06:12:31;6.57;;;5.22;;
60999;SDS011;46879;45.658;11.814;2023-01-29T06:17:31;6.40;;;4.82;;
60999;SDS011;46879;45.658;11.814;2023-01-29T06:22:32;5.20;;;4.70;;
60999;SDS011;46879;45.658;11.814;2023-01-29T06:27:33;7.03;;;5.32;;
60999;SDS011;46879;45.658;11.814;2023-01-29T06:32:33;6.22;;;5.00;;
60999;SDS011;46879;45.658;11.814;2023-01-29T06:37:34;6.20;;;5.32;;
60999;SDS011;46879;45.658;11.814;2023-01-29T06:42:35;7.22;;;4.90;;
60999;SDS011;46879;45.658;11.814;2023-01-29T06:47:35;6.88;;;5.50;;
60999;SDS011;46879;45.658;11.814;2023-01-29T06:52:36;6.65;;;5.25;;
60999;SDS011;46879;45.658;11.814;2023-01-29T06:57:37;6.15;;;5.05;;
60999;SDS011;46879;45.658;11.814;2023-01-29T07:02:37;5.93;;;5.13;;
60999;SDS011;46879;45.658;11.814;2023-01-29T07:07:38;6.20;;;4.88;;
60999;SDS011;46879;45.658;11.814;2023-01-29T07:12:38;7.03;;;5.10;;
60999;SDS011;46879;45.658;11.814;2023-01-29T07:17:39;5.40;;;4.50;;
60999;SDS011;46879;45.658;11.814;2023-01-29T07:22:39;6.25;;;4.78;;
60999;SDS011;46879;45.658;11.814;2023-01-29T07:27:40;5.15;;;4.53;;
60999;SDS011;46879;45.658;11.814;2023-01-29T07:32:41;6.03;;;4.93;;
60999;SDS011;46879;45.658;11.814;2023-01-29T07:37:41;6.63;;;4.72;;
60999;SDS011;46879;45.658;11.814;2023-01-29T07:42:42;6.65;;;4.75;;
60999;SDS011;46879;45.658;11.814;2023-01-29T07:47:43;6.20;;;4.30;;
60999;SDS011;46879;45.658;11.814;2023-01-29T07:52:44;6.53;;;4.40;;
60999;SDS011;46879;45.658;11.814;2023-01-29T07:57:45;7.68;;;3.97;;
60999;SDS011;46879;45.658;11.814;2023-01-29T08:02:46;6.40;;;4.40;;
60999;SDS011;46879;45.658;11.814;2023-01-29T08:07:51;5.75;;;4.20;;
60999;SDS011;46879;45.658;11.814;2023-01-29T08:12:56;8.93;;;4.35;;
60999;SDS011;46879;45.658;11.814;2023-01-29T08:17:59;10.65;;;4.78;;
60999;SDS011;46879;45.658;11.814;2023-01-29T08:23:02;13.30;;;4.72;;
60999;SDS011;46879;45.658;11.814;2023-01-29T08:28:11;10.38;;;4.85;;
60999;SDS011;46879;45.658;11.814;2023-01-29T08:33:11;11.45;;;5.40;;
60999;SDS011;46879;45.658;11.814;2023-01-29T08:38:12;18.23;;;4.65;;
60999;SDS011;46879;45.658;11.814;2023-01-29T08:43:12;8.55;;;4.57;;
60999;SDS011;46879;45.658;11.814;2023-01-29T08:48:13;15.10;;;4.78;;
60999;SDS011;46879;45.658;11.814;2023-01-29T08:53:14;16.00;;;4.72;;
60999;SDS011;46879;45.658;11.814;2023-01-29T08:58:14;10.32;;;4.60;;
60999;SDS011;46879;45.658;11.814;2023-01-29T09:03:15;7.82;;;4.20;;
60999;SDS011;46879;45.658;11.814;2023-01-29T09:08:15;8.77;;;4.95;;
60999;SDS011;46879;45.658;11.814;2023-01-29T09:13:16;14.80;;;4.60;;
60999;SDS011;46879;45.658;11.814;2023-01-29T09:18:17;7.63;;;4.40;;
60999;SDS011;46879;45.658;11.814;2023-01-29T09:23:17;13.73;;;4.35;;
60999;SDS011;46879;45.658;11.814;2023-01-29T09:28:18;10.63;;;4.20;;
60999;SDS011;46879;45.658;11.814;2023-01-29T09:33:19;9.52;;;4.43;;
60999;SDS011;46879;45.658;11.814;2023-01-29T09:38:19;7.10;;;4.20;;
60999;SDS011;46879;45.658;11.814;2023-01-29T09:43:25;7.32;;;4.07;;
60999;SDS011;46879;45.658;11.814;2023-01-29T09:59:30;6.10;;;3.85;;
60999;SDS011;46879;45.658;11.814;2023-01-29T10:26:45;11.05;;;3.80;;
60999;SDS011;46879;45.658;11.814;2023-01-29T10:31:48;6.20;;;4.18;;
60999;SDS011;46879;45.658;11.814;2023-01-29T10:36:55;6.82;;;3.65;;
60999;SDS011;46879;45.658;11.814;2023-01-29T11:03:15;4.10;;;3.70;;
60999;SDS011;46879;45.658;11.814;2023-01-29T11:08:45;4.07;;;3.55;;
60999;SDS011;46879;45.658;11.814;2023-01-29T11:14:03;6.18;;;3.97;;
60999;SDS011;46879;45.658;11.814;2023-01-29T11:19:09;4.75;;;3.40;;
60999;SDS011;46879;45.658;11.814;2023-01-29T11:24:11;5.47;;;3.72;;
60999;SDS011;46879;45.658;11.814;2023-01-29T11:34:56;5.28;;;3.75;;
60999;SDS011;46879;45.658;11.814;2023-01-29T11:45:24;7.03;;;3.80;;
60999;SDS011;46879;45.658;11.814;2023-01-29T11:50:27;5.93;;;3.85;;
60999;SDS011;46879;45.658;11.814;2023-01-29T11:55:33;5.28;;;3.50;;
60999;SDS011;46879;45.658;11.814;2023-01-29T12:00:35;3.95;;;3.50;;
60999;SDS011;46879;45.658;11.814;2023-01-29T12:05:40;8.02;;;3.60;;
60999;SDS011;46879;45.658;11.814;2023-01-29T12:11:14;5.90;;;4.68;;
60999;SDS011;46879;45.658;11.814;2023-01-29T12:16:32;5.30;;;3.70;;
60999;SDS011;46879;45.658;11.814;2023-01-29T12:38:19;5.07;;;3.75;;
60999;SDS011;46879;45.658;11.814;2023-01-29T12:43:43;10.52;;;4.28;;
60999;SDS011;46879;45.658;11.814;2023-01-29T12:48:47;5.47;;;3.47;;
60999;SDS011;46879;45.658;11.814;2023-01-29T12:53:59;5.80;;;3.88;;
60999;SDS011;46879;45.658;11.814;2023-01-29T12:59:12;4.28;;;3.45;;
60999;SDS011;46879;45.658;11.814;2023-01-29T13:04:56;4.90;;;3.88;;
60999;SDS011;46879;45.658;11.814;2023-01-29T13:10:09;5.22;;;4.00;;
60999;SDS011;46879;45.658;11.814;2023-01-29T13:20:38;5.50;;;3.88;;
60999;SDS011;46879;45.658;11.814;2023-01-29T13:25:39;5.57;;;4.15;;
60999;SDS011;46879;45.658;11.814;2023-01-29T13:30:40;4.47;;;3.88;;
60999;SDS011;46879;45.658;11.814;2023-01-29T13:35:41;5.28;;;3.58;;
60999;SDS011;46879;45.658;11.814;2023-01-29T13:40:48;6.22;;;4.07;;
60999;SDS011;46879;45.658;11.814;2023-01-29T13:45:50;6.85;;;4.90;;
60999;SDS011;46879;45.658;11.814;2023-01-29T13:50:56;4.05;;;3.55;;
60999;SDS011;46879;45.658;11.814;2023-01-29T13:57:02;4.00;;;3.17;;
60999;SDS011;46879;45.658;11.814;2023-01-29T14:06:48;4.95;;;4.28;;
60999;SDS011;46879;45.658;11.814;2023-01-29T14:16:59;4.82;;;3.65;;
60999;SDS011;46879;45.658;11.814;2023-01-29T14:22:01;4.78;;;3.83;;
60999;SDS011;46879;45.658;11.814;2023-01-29T14:27:03;6.10;;;3.97;;
60999;SDS011;46879;45.658;11.814;2023-01-29T14:37:24;6.45;;;4.38;;
60999;SDS011;46879;45.658;11.814;2023-01-29T14:42:35;4.43;;;3.30;;
60999;SDS011;46879;45.658;11.814;2023-01-29T14:52:38;4.63;;;3.97;;
60999;SDS011;46879;45.658;11.814;2023-01-29T14:57:41;5.65;;;3.63;;
60999;SDS011;46879;45.658;11.814;2023-01-29T15:02:43;5.10;;;3.63;;
60999;SDS011;46879;45.658;11.814;2023-01-29T15:13:06;4.88;;;3.95;;
60999;SDS011;46879;45.658;11.814;2023-01-29T15:23:31;6.85;;;4.13;;
60999;SDS011;46879;45.658;11.814;2023-01-29T15:28:33;4.47;;;3.58;;
60999;SDS011;46879;45.658;11.814;2023-01-29T15:33:35;4.85;;;3.53;;
60999;SDS011;46879;45.658;11.814;2023-01-29T15:38:37;4.32;;;3.58;;
60999;SDS011;46879;45.658;11.814;2023-01-29T15:43:41;3.92;;;3.30;;
60999;SDS011;46879;45.658;11.814;2023-01-29T15:48:44;4.43;;;3.50;;
60999;SDS011;46879;45.658;11.814;2023-01-29T15:59:01;3.75;;;3.20;;
60999;SDS011;46879;45.658;11.814;2023-01-29T16:04:04;4.05;;;3.20;;
60999;SDS011;46879;45.658;11.814;2023-01-29T16:09:09;5.55;;;3.67;;
60999;SDS011;46879;45.658;11.814;2023-01-29T16:14:20;5.93;;;3.90;;
60999;SDS011;46879;45.658;11.814;2023-01-29T16:19:25;4.35;;;3.47;;
60999;SDS011;46879;45.658;11.814;2023-01-29T16:24:28;4.13;;;3.63;;
60999;SDS011;46879;45.658;11.814;2023-01-29T16:29:31;4.47;;;3.40;;
60999;SDS011;46879;45.658;11.814;2023-01-29T16:34:37;5.15;;;3.58;;
60999;SDS011;46879;45.658;11.814;2023-01-29T16:39:44;4.20;;;3.25;;
60999;SDS011;46879;45.658;11.814;2023-01-29T16:45:05;4.55;;;3.20;;
60999;SDS011;46879;45.658;11.814;2023-01-29T16:55:35;3.38;;;3.08;;
60999;SDS011;46879;45.658;11.814;2023-01-29T17:00:42;6.32;;;3.60;;
60999;SDS011;46879;45.658;11.814;2023-01-29T17:05:46;3.55;;;3.10;;
60999;SDS011;46879;45.658;11.814;2023-01-29T17:10:47;3.05;;;2.75;;
60999;SDS011;46879;45.658;11.814;2023-01-29T17:15:48;4.47;;;3.20;;
60999;SDS011;46879;45.658;11.814;2023-01-29T17:20:48;4.78;;;3.53;;
60999;SDS011;46879;45.658;11.814;2023-01-29T17:25:51;3.92;;;3.35;;
60999;SDS011;46879;45.658;11.814;2023-01-29T17:30:52;4.25;;;3.50;;
60999;SDS011;46879;45.658;11.814;2023-01-29T17:35:53;4.50;;;3.47;;
60999;SDS011;46879;45.658;11.814;2023-01-29T17:40:57;5.85;;;3.58;;
60999;SDS011;46879;45.658;11.814;2023-01-29T17:46:23;3.53;;;3.22;;
60999;SDS011;46879;45.658;11.814;2023-01-29T17:51:23;10.15;;;3.75;;
60999;SDS011;46879;45.658;11.814;2023-01-29T17:56:24;8.88;;;3.63;;
60999;SDS011;46879;45.658;11.814;2023-01-29T18:01:29;5.85;;;3.95;;
60999;SDS011;46879;45.658;11.814;2023-01-29T18:06:30;7.10;;;3.92;;
60999;SDS011;46879;45.658;11.814;2023-01-29T18:11:30;30.20;;;6.20;;
60999;SDS011;46879;45.658;11.814;2023-01-29T18:16:31;25.65;;;5.40;;
60999;SDS011;46879;45.658;11.814;2023-01-29T18:21:41;18.48;;;4.45;;
60999;SDS011;46879;45.658;11.814;2023-01-29T18:26:42;11.40;;;4.38;;
60999;SDS011;46879;45.658;11.814;2023-01-29T18:31:42;9.32;;;4.63;;
60999;SDS011;46879;45.658;11.814;2023-01-29T18:36:43;10.38;;;4.68;;
60999;SDS011;46879;45.658;11.814;2023-01-29T18:41:46;14.02;;;4.47;;
60999;SDS011;46879;45.658;11.814;2023-01-29T18:46:47;9.00;;;4.50;;
60999;SDS011;46879;45.658;11.814;2023-01-29T18:51:48;8.23;;;4.32;;
60999;SDS011;46879;45.658;11.814;2023-01-29T18:56:49;6.78;;;4.03;;
60999;SDS011;46879;45.658;11.814;2023-01-29T19:01:50;9.40;;;4.10;;
60999;SDS011;46879;45.658;11.814;2023-01-29T19:06:50;9.40;;;4.53;;
60999;SDS011;46879;45.658;11.814;2023-01-29T19:11:51;10.80;;;4.45;;
60999;SDS011;46879;45.658;11.814;2023-01-29T19:16:51;8.98;;;4.55;;
60999;SDS011;46879;45.658;11.814;2023-01-29T19:21:52;10.45;;;4.20;;
60999;SDS011;46879;45.658;11.814;2023-01-29T19:26:53;7.65;;;3.83;;
60999;SDS011;46879;45.658;11.814;2023-01-29T19:31:54;11.55;;;4.35;;
60999;SDS011;46879;45.658;11.814;2023-01-29T19:36:55;9.05;;;5.13;;
60999;SDS011;46879;45.658;11.814;2023-01-29T19:41:55;11.00;;;4.07;;
60999;SDS011;46879;45.658;11.814;2023-01-29T19:46:56;9.48;;;4.38;;
60999;SDS011;46879;45.658;11.814;2023-01-29T19:51:56;7.88;;;4.85;;
60999;SDS011;46879;45.658;11.814;2023-01-29T19:56:57;7.75;;;4.57;;
60999;SDS011;46879;45.658;11.814;2023-01-29T20:01:58;6.82;;;4.32;;
60999;SDS011;46879;45.658;11.814;2023-01-29T20:06:59;7.18;;;5.05;;
60999;SDS011;46879;45.658;11.814;2023-01-29T20:11:59;9.02;;;5.18;;
60999;SDS011;46879;45.658;11.814;2023-01-29T20:17:00;11.98;;;5.13;;
60999;SDS011;46879;45.658;11.814;2023-01-29T20:22:00;9.57;;;4.65;;
60999;SDS011;46879;45.658;11.814;2023-01-29T20:27:01;6.07;;;4.53;;
60999;SDS011;46879;45.658;11.814;2023-01-29T20:32:02;6.88;;;4.97;;
60999;SDS011;46879;45.658;11.814;2023-01-29T20:37:03;8.15;;;4.72;;
60999;SDS011;46879;45.658;11.814;2023-01-29T20:42:04;7.72;;;5.25;;
60999;SDS011;46879;45.658;11.814;2023-01-29T20:47:05;8.73;;;4.70;;
60999;SDS011;46879;45.658;11.814;2023-01-29T20:52:05;6.40;;;4.28;;
60999;SDS011;46879;45.658;11.814;2023-01-29T20:57:07;7.47;;;4.25;;
60999;SDS011;46879;45.658;11.814;2023-01-29T21:02:08;8.68;;;4.75;;
60999;SDS011;46879;45.658;11.814;2023-01-29T21:07:09;7.18;;;5.53;;
60999;SDS011;46879;45.658;11.814;2023-01-29T21:12:10;9.05;;;4.90;;
60999;SDS011;46879;45.658;11.814;2023-01-29T21:17:11;13.30;;;5.20;;
60999;SDS011;46879;45.658;11.814;2023-01-29T21:22:11;8.75;;;5.57;;
60999;SDS011;46879;45.658;11.814;2023-01-29T21:27:12;8.85;;;5.75;;
60999;SDS011;46879;45.658;11.814;2023-01-29T21:32:12;9.70;;;5.80;;
60999;SDS011;46879;45.658;11.814;2023-01-29T21:37:13;9.35;;;5.88;;
60999;SDS011;46879;45.658;11.814;2023-01-29T21:42:14;14.00;;;6.07;;
60999;SDS011;46879;45.658;11.814;2023-01-29T21:47:33;8.20;;;6.03;;
60999;SDS011;46879;45.658;11.814;2023-01-29T21:52:33;9.63;;;5.43;;
60999;SDS011;46879;45.658;11.814;2023-01-29T21:57:34;7.95;;;5.20;;
60999;SDS011;46879;45.658;11.814;2023-01-29T22:02:34;10.60;;;5.57;;
60999;SDS011;46879;45.658;11.814;2023-01-29T22:07:35;9.80;;;6.82;;
60999;SDS011;46879;45.658;11.814;2023-01-29T22:12:36;9.98;;;6.63;;
60999;SDS011;46879;45.658;11.814;2023-01-29T22:17:37;11.23;;;7.38;;
60999;SDS011;46879;45.658;11.814;2023-01-29T22:22:40;12.82;;;7.40;;
60999;SDS011;46879;45.658;11.814;2023-01-29T22:27:40;10.80;;;7.13;;
60999;SDS011;46879;45.658;11.814;2023-01-29T22:32:41;10.10;;;7.07;;
60999;SDS011;46879;45.658;11.814;2023-01-29T22:37:42;16.17;;;6.40;;
60999;SDS011;46879;45.658;11.814;2023-01-29T22:42:43;9.18;;;6.85;;
60999;SDS011;46879;45.658;11.814;2023-01-29T22:47:44;12.13;;;7.65;;
60999;SDS011;46879;45.658;11.814;2023-01-29T22:52:44;10.50;;;7.28;;
60999;SDS011;46879;45.658;11.814;2023-01-29T22:57:52;12.55;;;6.63;;
60999;SDS011;46879;45.658;11.814;2023-01-29T23:02:53;9.05;;;6.68;;
60999;SDS011;46879;45.658;11.814;2023-01-29T23:07:53;10.98;;;6.82;;
60999;SDS011;46879;45.658;11.814;2023-01-29T23:12:54;11.43;;;7.25;;
60999;SDS011;46879;45.658;11.814;2023-01-29T23:17:55;10.93;;;6.90;;
60999;SDS011;46879;45.658;11.814;2023-01-29T23:22:55;11.13;;;6.68;;
60999;SDS011;46879;45.658;11.814;2023-01-29T23:27:56;10.25;;;7.20;;
60999;SDS011;46879;45.658;11.814;2023-01-29T23:32:56;10.43;;;7.13;;
60999;SDS011;46879;45.658;11.814;2023-01-29T23:37:57;12.52;;;6.93;;
60999;SDS011;46879;45.658;11.814;2023-01-29T23:42:57;11.80;;;6.97;;
60999;SDS011;46879;45.658;11.814;2023-01-29T23:47:58;10.55;;;5.97;;
60999;SDS011;46879;45.658;11.814;2023-01-29T23:52:58;12.13;;;7.50;;
60999;SDS011;46879;45.658;11.814;2023-01-29T23:57:59;9.75;;;6.60;;
